Sachs Harbour Airport, Northwest Territories

Past 24 Hour Conditions

This table is a summary of hourly weather conditions for the past 24 hours. This summary includes the following parameters: temperature, humidity, dew point, wind speed and direction, air pressure, visibility and/or wind chill and humidex.
Date / Time
(MDT)
Conditions Temp (°C) Humidity (%) Dew Point (°C) Wind (km/h) Pressure (kPa) Vis (km) Wind Chill
20 April 2014
23:00 N/A -18   88 -20 NNW 10 102.4 N/A -25
22:00 N/A -17 86 -19 NNW 11 102.4 N/A -24
21:00 N/A -16 89 -17 NE 8 102.3 N/A -21
20:00 N/A -16 86 -18 NNE 12 102.3 N/A -23
19:00 N/A -17 85 -19 N 15 102.3 N/A -25
18:00 N/A -16 83 -18 N 13 102.2 N/A -24
17:00 N/A -14 84 -16 N 11 102.2 N/A -21
16:00 N/A -14 86 -16 N 10 102.2 N/A -20
15:00 N/A -11 87 -12 NE 4 102.1 N/A -13
14:00 N/A -12 87 -13 ENE 7 102.1 N/A -16
13:00 N/A -10   90 -11 E 11 102.1 N/A -15
12:00 Mostly Cloudy -11 90 -12 E 5 102.1 16 -14
11:00 Mostly Cloudy -11 90 -12 E 5 102.1 16 -14
10:00 Light Snow -11 90 -12 ESE 5 102.1 16 -14
9:00 Light Snow -12 89 -13 E 5 102.0 13 -15
8:00 N/A -12 91 -13 ENE 8 101.9 N/A -16
7:00 N/A -10   93 -11 ESE 7 101.9 N/A -14
6:00 N/A -10   93 -11 E 8 101.9 N/A -15
5:00 N/A -11 93 -12 E 9 101.8 N/A -16
4:00 N/A -10   93 -11 ESE 11 101.8 N/A -16
3:00 N/A -11 93 -11 E 14 101.8 N/A -17
2:00 N/A -10   93 -11 ESE 16 101.7 N/A -17
1:00 N/A -10   94 -11 ESE 15 101.7 N/A -17
00:00 N/A -10   93 -11 E 13 101.7 N/A -16
19 April 2014
23:00 N/A -10   93 -11 E 16 101.7 N/A -17
N/A
Not available
 ↑ 
Highest temperature
 ↓ 
Lowest temperature
*
Value not significant.

If you require additional historical weather information, please visit Climate Data Online.